createdAt,value
2023-02-02T00:00:07.158Z,92197.90
2023-02-02T00:08:51.032Z,92135.71
2023-02-02T00:17:14.248Z,92080.48
2023-02-02T00:25:37.177Z,92036.14
2023-02-02T00:34:00.671Z,91998.29
2023-02-02T00:42:24.878Z,92003.48
2023-02-02T00:50:47.901Z,92026.84
2023-02-02T00:59:10.874Z,92036.84
2023-02-02T01:07:33.776Z,92044.40
2023-02-02T01:15:58.381Z,92079.26
2023-02-02T01:24:22.263Z,92148.92
2023-02-02T01:32:45.150Z,92231.20
2023-02-02T01:41:10.840Z,92278.65
2023-02-02T01:49:34.253Z,92302.48
2023-02-02T01:58:09.012Z,92347.58
2023-02-02T02:06:32.232Z,92388.30
2023-02-02T02:15:15.736Z,92391.22
2023-02-02T02:24:19.467Z,92387.10
2023-02-02T02:32:54.901Z,92410.88
2023-02-02T02:41:25.585Z,92426.08
2023-02-02T02:49:49.482Z,92378.77
2023-02-02T02:58:32.799Z,92347.11
2023-02-02T03:07:05.932Z,92334.80
2023-02-02T03:15:28.872Z,92330.17
2023-02-02T03:23:51.864Z,92314.10
2023-02-02T03:32:14.763Z,92320.61
2023-02-02T03:40:37.696Z,92335.34
2023-02-02T03:49:02.362Z,92321.87
2023-02-02T03:57:25.381Z,92322.17
2023-02-02T04:05:51.511Z,92346.16
2023-02-02T04:14:14.556Z,92391.91
2023-02-02T04:22:37.561Z,92415.77
2023-02-02T04:31:00.662Z,92405.98
2023-02-02T04:39:23.795Z,92410.30
2023-02-02T04:47:46.758Z,92429.95
2023-02-02T04:56:13.763Z,92452.41
2023-02-02T05:04:36.898Z,92466.46
2023-02-02T05:13:00.048Z,92453.13
2023-02-02T05:21:23.483Z,92455.31
2023-02-02T05:29:48.421Z,92472.58
2023-02-02T05:38:11.361Z,92486.09
2023-02-02T05:46:34.611Z,92476.92
2023-02-02T05:54:57.650Z,92469.21
2023-02-02T06:03:21.739Z,92472.60
2023-02-02T06:11:45.431Z,92488.79
2023-02-02T06:20:08.943Z,92471.70
2023-02-02T06:28:32.119Z,92468.00
2023-02-02T06:36:55.105Z,92478.84
2023-02-02T06:45:18.052Z,92481.96
2023-02-02T06:53:41.038Z,92491.86
2023-02-02T07:02:04.035Z,92535.59
2023-02-02T07:11:11.111Z,92552.79
2023-02-02T07:19:09.773Z,92547.09
2023-02-02T07:27:33.392Z,92568.39
2023-02-02T07:35:56.351Z,92594.52
2023-02-02T07:44:19.305Z,92587.81
2023-02-02T07:52:42.776Z,92588.10
2023-02-02T08:01:07.654Z,92605.23
2023-02-02T08:09:33.312Z,92618.67
2023-02-02T08:17:56.247Z,92637.34
2023-02-02T08:26:23.484Z,92641.98
2023-02-02T08:34:49.088Z,92641.11
2023-02-02T08:43:12.061Z,92667.10
2023-02-02T08:51:40.597Z,92682.71
2023-02-02T09:00:07.324Z,92663.73
2023-02-02T09:08:30.287Z,92653.17
2023-02-02T09:16:53.258Z,92654.70
2023-02-02T09:25:16.504Z,92666.88
2023-02-02T09:33:40.850Z,92665.77
2023-02-02T09:42:35.081Z,92659.62
2023-02-02T09:51:06.422Z,92674.26
2023-02-02T09:59:35.862Z,92690.29
2023-02-02T10:08:05.743Z,92734.13
2023-02-02T10:16:30.007Z,92768.17
2023-02-02T10:24:53.085Z,92801.71
2023-02-02T10:33:39.455Z,92827.32
2023-02-02T10:42:22.779Z,92843.38
2023-02-02T10:50:58.604Z,92861.19
2023-02-02T10:59:30.643Z,92849.16
2023-02-02T11:07:54.477Z,92809.48
2023-02-02T11:16:17.478Z,92802.17
2023-02-02T11:24:50.142Z,92816.67
2023-02-02T11:33:34.963Z,92803.13
2023-02-02T11:42:08.153Z,92781.83
2023-02-02T11:50:31.774Z,92784.41
2023-02-02T11:58:59.296Z,92804.09
2023-02-02T12:07:22.100Z,92783.41
2023-02-02T12:16:15.829Z,92794.19
2023-02-02T12:25:19.404Z,92828.64
2023-02-02T12:33:59.880Z,92853.29
2023-02-02T12:42:34.049Z,92861.13
2023-02-02T12:51:19.061Z,92856.62
2023-02-02T13:00:04.844Z,92829.88
2023-02-02T13:08:37.933Z,92804.99
2023-02-02T13:17:09.856Z,92784.33
2023-02-02T13:25:42.478Z,92759.49
2023-02-02T13:34:14.900Z,92747.54
2023-02-02T13:42:52.527Z,92760.36
2023-02-02T13:51:24.630Z,92743.76
2023-02-02T13:59:57.289Z,92704.91
2023-02-02T14:08:25.855Z,92663.62
2023-02-02T14:16:50.772Z,92639.64
2023-02-02T14:25:29.241Z,92590.30
2023-02-02T14:33:52.162Z,92568.36
2023-02-02T14:42:56.914Z,92584.03
2023-02-02T14:51:26.714Z,92598.34
2023-02-02T14:59:50.138Z,92624.36
2023-02-02T15:08:22.036Z,92637.99
2023-02-02T15:16:46.456Z,92628.02
2023-02-02T15:25:36.048Z,92603.41
2023-02-02T15:34:02.776Z,92574.30
2023-02-02T15:42:53.353Z,92571.48
2023-02-02T15:51:17.806Z,92571.17
2023-02-02T15:59:42.842Z,92554.84
2023-02-02T16:08:13.343Z,92552.34
2023-02-02T16:16:39.912Z,92565.67
2023-02-02T16:25:09.907Z,92577.52
2023-02-02T16:33:40.144Z,92556.71
2023-02-02T16:42:23.100Z,92456.89
2023-02-02T16:50:49.574Z,92374.30
2023-02-02T16:59:38.004Z,92326.31
2023-02-02T17:08:11.010Z,92312.63
2023-02-02T17:16:34.070Z,92289.27
2023-02-02T17:24:59.627Z,92230.89
2023-02-02T17:33:24.891Z,92168.89
2023-02-02T17:41:48.877Z,92122.52
2023-02-02T17:50:12.774Z,92083.90
2023-02-02T17:58:37.226Z,92075.38
2023-02-02T18:07:01.771Z,92082.10
2023-02-02T18:15:25.013Z,92089.36
2023-02-02T18:23:49.417Z,92098.98
2023-02-02T18:32:12.641Z,92106.05
2023-02-02T18:40:35.570Z,92127.99
2023-02-02T18:48:58.570Z,92153.97
2023-02-02T18:57:22.263Z,92160.22
2023-02-02T19:06:03.695Z,92170.15
2023-02-02T19:14:32.182Z,92168.30
2023-02-02T19:23:03.908Z,92168.64
2023-02-02T19:31:28.287Z,92182.10
2023-02-02T19:40:20.328Z,92180.20
2023-02-02T19:48:43.310Z,92192.20
2023-02-02T19:57:06.133Z,92206.77
2023-02-02T20:05:39.836Z,92200.67
2023-02-02T20:14:19.033Z,92195.00
2023-02-02T20:22:42.011Z,92201.71
2023-02-02T20:31:06.010Z,92204.11
2023-02-02T20:39:40.185Z,92199.42
2023-02-02T20:48:03.107Z,92205.70
2023-02-02T20:56:26.094Z,92188.85
2023-02-02T21:04:50.842Z,92119.46
2023-02-02T21:13:13.942Z,92037.84
2023-02-02T21:21:36.902Z,91976.56
2023-02-02T21:29:59.820Z,91951.30
2023-02-02T21:38:22.753Z,91942.16
2023-02-02T21:46:49.137Z,91941.34
2023-02-02T21:55:21.389Z,91932.10
2023-02-02T22:03:46.925Z,91921.27
2023-02-02T22:12:36.212Z,91888.86
2023-02-02T22:20:59.631Z,91825.97
2023-02-02T22:29:24.609Z,91754.45
2023-02-02T22:37:47.776Z,91712.52
2023-02-02T22:46:10.754Z,91683.29
2023-02-02T22:54:33.713Z,91639.73
2023-02-02T23:02:57.391Z,91615.94
2023-02-02T23:11:20.375Z,91594.70
2023-02-02T23:19:43.357Z,91569.52
2023-02-02T23:28:07.837Z,91554.98
2023-02-02T23:36:30.754Z,91531.05
2023-02-02T23:44:53.773Z,91516.80
2023-02-02T23:53:17.023Z,91514.58
